Accueil
METAR-TAF:

METAR-TAF

Aéroports :

Whiteman Air Force Base

Knob Noster, Missouri, États-Unis

latitude: 38-44N, longitude: 093-33W, altitude: 265 m

Observation

Le bulletin a été fait il y a 26 minutes, à 23:56 UTC
Vent 12 kt de nord
Température -7°C
Humidité 62%
Pression 1033 hPa
Visibilité: 16.1 km
Ciel clair

METAR: KSZL 112356Z AUTO 35012KT 10SM CLR M07/M13 A3050 RMK AO2 SLP343 60000 T10731126 11052 21073 52030 $

Heure: 18:22 (00:22 UTC)


TAF: absent

Observations et prévisions météorologiques de plus de 4000 aéroports (messages METAR et TAF).

Les stations disponibles sont représentées par des disques jaunes et rouges sur la carte.

Passer la souris dessus pour voir le nom de la station.

Cliquer dessus pour voir les observations et prévisions météorologiques.

Pour changer de carte: cliquez sur les boutons verts avec une croix noire pour zoomer, sur le bouton vert avec un tiret pour effectuer un zoom arrière, ou sur les flèches vertes pour les cartes adjacentes.


METAR-TAF: